Terminal Aerodrome Forecast
Issued by NWS Amarillo, TX

Home | Current Version | Previous Version | Text Only | Print | Product List | Glossary On
Versions: 1 2 3 4 5 6 7 8 9 10 11 12 13 14 15 16 17 18
000
FTUS44 KAMA 242346
TAFAMA
TAF
KAMA 242346Z 2500/2524 20011KT P6SM FEW120
     FM250900 35011KT P6SM SCT015 BKN040
     FM251400 02023G33KT P6SM OVC020
     FM251700 03023G33KT P6SM BKN050=

USA.gov is the U.S. government's official web portal to all federal, state and local government web resources and services.